createdAt,value
2022-10-17T04:01:04.757Z,99.99
2022-10-17T04:02:04.963Z,99.99
2022-10-17T04:03:04.554Z,99.99
2022-10-17T04:04:04.703Z,99.99
2022-10-17T04:05:04.548Z,99.99
2022-10-17T04:06:04.863Z,99.99
2022-10-17T04:07:04.551Z,99.99
2022-10-17T04:08:05.019Z,99.99
2022-10-17T04:09:04.520Z,99.99
2022-10-17T04:10:04.443Z,99.99
2022-10-17T04:11:04.450Z,99.99
2022-10-17T04:12:04.411Z,99.99
2022-10-17T04:13:04.394Z,99.99
2022-10-17T04:14:04.361Z,99.99
2022-10-17T04:15:04.492Z,99.99
2022-10-17T04:16:04.541Z,99.99
2022-10-17T04:17:11.351Z,99.99
2022-10-17T04:19:04.283Z,99.99
2022-10-17T04:20:04.269Z,99.99
2022-10-17T04:21:04.319Z,99.99
2022-10-17T04:22:04.250Z,99.99
2022-10-17T04:23:04.233Z,99.99
2022-10-17T04:24:04.228Z,99.99
2022-10-17T04:25:04.225Z,99.99
2022-10-17T04:26:04.200Z,99.99
2022-10-17T04:27:04.241Z,99.99
2022-10-17T04:28:04.178Z,99.99
2022-10-17T04:29:04.937Z,99.99
2022-10-17T04:30:04.219Z,99.99
2022-10-17T04:31:04.225Z,99.99
2022-10-17T04:32:04.137Z,99.99
2022-10-17T04:33:04.168Z,99.99
2022-10-17T04:34:04.095Z,99.99
2022-10-17T04:35:04.076Z,99.99
2022-10-17T04:36:04.066Z,99.99
2022-10-17T04:37:04.055Z,99.99
2022-10-17T04:38:04.044Z,99.99
2022-10-17T04:39:04.143Z,99.99
2022-10-17T04:40:04.028Z,99.99
2022-10-17T04:41:04.007Z,99.99
2022-10-17T04:42:03.997Z,99.99
2022-10-17T04:43:03.974Z,99.99
2022-10-17T04:44:03.963Z,99.99
2022-10-17T04:45:03.993Z,99.99
2022-10-17T04:46:03.935Z,99.99
2022-10-17T04:47:03.927Z,99.99
2022-10-17T04:48:03.913Z,99.99
2022-10-17T04:49:03.912Z,99.99
2022-10-17T04:50:03.886Z,99.99
2022-10-17T04:51:03.931Z,99.99
2022-10-17T04:52:03.852Z,99.99
2022-10-17T04:53:03.841Z,99.99
2022-10-17T04:54:03.831Z,99.99
2022-10-17T04:55:03.824Z,99.99
2022-10-17T04:56:03.820Z,99.99
2022-10-17T04:57:03.835Z,99.99
2022-10-17T04:58:03.796Z,99.99
2022-10-17T04:59:03.770Z,99.99
2022-10-17T05:00:03.803Z,99.99
2022-10-17T05:01:03.808Z,99.99
2022-10-17T05:02:03.729Z,99.99
2022-10-17T05:03:03.757Z,99.99
2022-10-17T05:04:03.729Z,99.99
2022-10-17T05:05:03.689Z,99.99
2022-10-17T05:06:03.690Z,99.99
2022-10-17T05:07:03.668Z,99.99
2022-10-17T05:08:03.652Z,99.99
2022-10-17T05:09:03.705Z,99.99
2022-10-17T05:10:03.638Z,99.99
2022-10-17T05:11:03.638Z,99.99
2022-10-17T05:12:05.453Z,99.99
2022-10-17T05:13:03.596Z,99.99
2022-10-17T05:14:03.574Z,99.99
2022-10-17T05:15:03.707Z,99.99
2022-10-17T05:16:03.548Z,99.99
2022-10-17T05:17:03.532Z,99.99
2022-10-17T05:18:03.530Z,99.99
2022-10-17T05:19:03.509Z,99.99
2022-10-17T05:20:03.504Z,99.99
2022-10-17T05:21:03.536Z,99.99
2022-10-17T05:22:03.481Z,99.99
2022-10-17T05:23:03.462Z,99.99
2022-10-17T05:24:03.446Z,99.99
2022-10-17T05:25:03.423Z,99.99
2022-10-17T05:26:03.424Z,99.99
2022-10-17T05:27:03.463Z,99.99
2022-10-17T05:28:03.388Z,99.99
2022-10-17T05:29:03.426Z,99.99
2022-10-17T05:30:03.379Z,99.99
2022-10-17T05:31:03.364Z,99.99
2022-10-17T05:32:03.367Z,99.99
2022-10-17T05:33:03.363Z,99.99
2022-10-17T05:34:03.331Z,99.99
2022-10-17T05:35:03.301Z,99.99
2022-10-17T05:36:03.317Z,99.99
2022-10-17T05:37:03.270Z,99.99
2022-10-17T05:38:03.260Z,99.99
2022-10-17T05:39:03.309Z,99.99
2022-10-17T05:40:03.239Z,99.99
2022-10-17T05:41:03.277Z,99.99
2022-10-17T05:42:03.212Z,99.99
2022-10-17T05:43:03.190Z,99.99
2022-10-17T05:44:05.461Z,99.99
2022-10-17T05:45:03.242Z,99.99
2022-10-17T05:46:03.158Z,99.99
2022-10-17T05:47:03.189Z,99.99
2022-10-17T05:48:03.133Z,99.99
2022-10-17T05:49:10.694Z,99.99
2022-10-17T05:50:04.136Z,99.99
2022-10-17T05:51:03.089Z,99.99
2022-10-17T05:52:03.080Z,99.99
2022-10-17T05:53:03.059Z,99.99
2022-10-17T05:54:03.053Z,99.99
2022-10-17T05:55:03.086Z,99.99
2022-10-17T05:56:03.034Z,99.99
2022-10-17T05:57:03.026Z,99.99
2022-10-17T05:58:03.013Z,99.99
2022-10-17T05:59:02.976Z,99.99
2022-10-17T06:00:02.985Z,99.99
2022-10-17T06:01:03.005Z,99.99
2022-10-17T06:02:03.037Z,99.99
2022-10-17T06:03:02.941Z,99.99
2022-10-17T06:04:02.924Z,99.99
2022-10-17T06:05:02.916Z,99.99
2022-10-17T06:06:02.895Z,99.99
2022-10-17T06:07:02.933Z,99.99
2022-10-17T06:08:02.873Z,99.99
2022-10-17T06:09:02.900Z,99.99
2022-10-17T06:10:02.854Z,99.99
2022-10-17T06:11:06.070Z,99.99
2022-10-17T06:12:03.949Z,99.99
2022-10-17T06:13:02.805Z,99.99
2022-10-17T06:14:02.792Z,99.99
2022-10-17T06:15:02.794Z,99.99
2022-10-17T06:16:02.780Z,99.99
2022-10-17T06:17:02.761Z,99.99
2022-10-17T06:18:02.798Z,99.99
2022-10-17T06:19:02.723Z,99.99
2022-10-17T06:20:02.721Z,99.99
2022-10-17T06:21:02.700Z,99.99
2022-10-17T06:22:02.702Z,99.99
2022-10-17T06:23:02.677Z,99.99
2022-10-17T06:24:02.691Z,99.99
2022-10-17T06:25:02.706Z,99.98
2022-10-17T06:26:02.647Z,99.78
2022-10-17T06:27:02.627Z,99.78
2022-10-17T06:28:02.619Z,99.78
2022-10-17T06:29:02.740Z,99.68
2022-10-17T06:30:02.604Z,99.68
2022-10-17T06:31:02.756Z,99.52
2022-10-17T06:32:02.589Z,99.43
2022-10-17T06:33:02.555Z,99.43
2022-10-17T06:34:02.546Z,99.18
2022-10-17T06:35:02.527Z,98.97
2022-10-17T06:36:02.509Z,98.86
2022-10-17T06:37:02.566Z,98.66
2022-10-17T06:38:02.487Z,98.56
2022-10-17T06:39:02.513Z,98.25
2022-10-17T06:40:02.499Z,98.00
2022-10-17T06:41:02.456Z,97.75
2022-10-17T06:42:02.437Z,97.61
2022-10-17T06:43:02.638Z,97.56
2022-10-17T06:44:02.421Z,97.57
2022-10-17T06:45:02.396Z,97.42
2022-10-17T06:46:02.389Z,97.12
2022-10-17T06:47:02.373Z,96.87
2022-10-17T06:48:02.355Z,96.51
2022-10-17T06:49:02.404Z,96.25
2022-10-17T06:50:02.334Z,96.25
2022-10-17T06:51:02.314Z,96.04
2022-10-17T06:52:02.488Z,96.04
2022-10-17T06:53:02.289Z,95.90
2022-10-17T06:54:02.274Z,96.20
2022-10-17T06:56:02.250Z,95.81
2022-10-17T06:57:02.234Z,95.97
2022-10-17T06:58:02.259Z,95.00
2022-10-17T06:59:02.212Z,95.36
2022-10-17T07:00:02.200Z,95.21
2022-10-17T07:01:02.314Z,95.05
2022-10-17T07:02:02.186Z,94.80
2022-10-17T07:03:02.212Z,94.70
2022-10-17T07:04:02.170Z,94.09
2022-10-17T07:05:02.159Z,93.54
2022-10-17T07:06:02.120Z,93.54
2022-10-17T07:07:02.128Z,93.70
2022-10-17T07:08:02.092Z,93.40
2022-10-17T07:09:02.427Z,92.89
2022-10-17T07:10:02.071Z,92.48
2022-10-17T07:11:02.052Z,92.32
2022-10-17T07:12:02.053Z,92.57
2022-10-17T07:13:02.030Z,92.77
2022-10-17T07:14:02.018Z,92.77
2022-10-17T07:15:02.063Z,92.72
2022-10-17T07:16:02.031Z,92.22
2022-10-17T07:17:01.977Z,93.03
2022-10-17T07:18:01.968Z,93.60
2022-10-17T07:19:01.940Z,92.84
2022-10-17T07:20:01.958Z,92.70
2022-10-17T07:21:01.979Z,92.25
2022-10-17T07:22:01.911Z,91.90
2022-10-17T07:23:01.890Z,90.84
2022-10-17T07:24:01.878Z,90.34
2022-10-17T07:25:01.865Z,90.30
2022-10-17T07:26:01.868Z,90.09
2022-10-17T07:27:01.921Z,89.34
2022-10-17T07:28:01.827Z,89.85
2022-10-17T07:29:01.934Z,89.14
2022-10-17T07:30:01.799Z,89.00
2022-10-17T07:31:01.788Z,88.39
2022-10-17T07:32:01.774Z,87.12
2022-10-17T07:33:01.808Z,87.73
2022-10-17T07:34:01.749Z,87.87
2022-10-17T07:35:01.727Z,88.33
2022-10-17T07:36:01.727Z,88.43
2022-10-17T07:37:01.706Z,87.73
2022-10-17T07:38:01.697Z,88.02
2022-10-17T07:39:01.726Z,87.99
2022-10-17T07:40:01.667Z,88.19
2022-10-17T07:41:01.655Z,88.35
2022-10-17T07:42:01.648Z,87.64
2022-10-17T07:43:01.625Z,87.64
2022-10-17T07:44:01.615Z,87.24
2022-10-17T07:45:01.811Z,86.90
2022-10-17T07:46:01.612Z,87.10
2022-10-17T07:47:01.577Z,87.10
2022-10-17T07:48:01.576Z,87.38
2022-10-17T07:49:01.549Z,88.74
2022-10-17T07:50:01.534Z,89.79
2022-10-17T07:51:01.577Z,90.03
2022-10-17T07:52:01.512Z,90.89
2022-10-17T07:53:01.494Z,91.44
2022-10-17T07:54:01.498Z,91.54
2022-10-17T07:55:01.464Z,92.19
2022-10-17T07:56:01.484Z,92.24
2022-10-17T07:57:01.506Z,92.44
2022-10-17T07:58:01.443Z,92.44
2022-10-17T07:59:03.839Z,92.64
2022-10-17T08:00:02.413Z,92.84
2022-10-17T08:02:01.399Z,93.05
2022-10-17T08:03:01.423Z,92.99
2022-10-17T08:04:01.354Z,93.19
2022-10-17T08:05:01.343Z,93.60
2022-10-17T08:06:01.331Z,93.49
2022-10-17T08:07:18.241Z,93.55
2022-10-17T08:08:02.362Z,93.65
2022-10-17T08:09:01.291Z,93.65
2022-10-17T08:10:01.328Z,93.65
2022-10-17T08:11:01.291Z,94.06
2022-10-17T08:12:01.250Z,93.61
2022-10-17T08:13:01.232Z,93.61
2022-10-17T08:14:01.391Z,93.30
2022-10-17T08:15:01.202Z,93.46
2022-10-17T08:16:01.214Z,93.16
2022-10-17T08:17:01.171Z,92.86
2022-10-17T08:18:01.170Z,92.55
2022-10-17T08:19:01.236Z,92.45
2022-10-17T08:20:01.209Z,91.90
2022-10-17T08:21:01.181Z,92.10
2022-10-17T08:22:01.109Z,92.21
2022-10-17T08:23:01.139Z,92.00
2022-10-17T08:24:01.089Z,92.16
2022-10-17T08:25:01.082Z,92.16
2022-10-17T08:26:01.120Z,92.47
2022-10-17T08:27:01.048Z,91.96
2022-10-17T08:28:01.089Z,92.36
2022-10-17T08:29:01.105Z,92.22
2022-10-17T08:30:01.010Z,91.71
2022-10-17T08:31:01.152Z,91.51
2022-10-17T08:32:01.927Z,91.71
2022-10-17T08:33:00.973Z,91.41
2022-10-17T08:34:00.961Z,91.41
2022-10-17T08:35:00.946Z,91.51
2022-10-17T08:36:00.935Z,91.67
2022-10-17T08:37:00.948Z,91.27
2022-10-17T08:38:03.422Z,90.86
2022-10-17T08:39:00.890Z,90.56
2022-10-17T08:40:00.898Z,90.56
2022-10-17T08:41:00.877Z,90.41
2022-10-17T08:42:00.911Z,90.21
2022-10-17T08:43:00.837Z,90.01
2022-10-17T08:44:00.948Z,90.11
2022-10-17T08:45:00.827Z,89.91
2022-10-17T08:46:00.808Z,89.76
2022-10-17T08:47:00.798Z,89.50
2022-10-17T08:48:00.786Z,90.31
2022-10-17T08:49:00.757Z,90.21
2022-10-17T08:50:00.805Z,89.97
2022-10-17T08:51:00.735Z,89.70
2022-10-17T08:52:00.726Z,89.40
2022-10-17T08:53:00.706Z,90.01
2022-10-17T08:54:00.697Z,90.01
2022-10-17T08:55:00.714Z,89.97
2022-10-17T08:56:00.715Z,89.66
2022-10-17T08:57:00.664Z,89.87
2022-10-17T08:58:00.647Z,89.97
2022-10-17T08:59:00.636Z,89.76
2022-10-17T09:00:00.615Z,89.72
2022-10-17T09:01:00.603Z,89.62
2022-10-17T09:02:00.654Z,89.42
2022-10-17T09:03:00.591Z,89.37
2022-10-17T09:04:00.568Z,89.48
2022-10-17T09:05:00.596Z,89.43
2022-10-17T09:06:00.542Z,89.23
2022-10-17T09:07:00.530Z,88.23
2022-10-17T09:08:00.551Z,88.12
2022-10-17T09:09:00.495Z,88.43
2022-10-17T09:10:00.492Z,87.68
2022-10-17T09:11:00.482Z,87.58
2022-10-17T09:12:00.453Z,87.18
2022-10-17T09:13:05.364Z,87.13
2022-10-17T09:14:01.516Z,88.04
2022-10-17T09:15:00.412Z,87.29
2022-10-17T09:16:00.406Z,86.79
2022-10-17T09:17:00.402Z,86.49
2022-10-17T09:18:00.371Z,85.68
2022-10-17T09:19:00.368Z,85.48
2022-10-17T09:20:00.404Z,85.88
2022-10-17T09:21:00.331Z,85.74
2022-10-17T09:22:00.321Z,85.14
2022-10-17T09:23:00.407Z,85.54
2022-10-17T09:24:09.392Z,85.34
2022-10-17T09:25:01.421Z,85.40
2022-10-17T09:26:00.271Z,84.39
2022-10-17T09:27:00.260Z,84.29
2022-10-17T09:28:00.241Z,83.95
2022-10-17T09:29:00.292Z,82.94
2022-10-17T09:30:00.222Z,83.65
2022-10-17T09:31:00.263Z,83.11
2022-10-17T09:32:00.207Z,83.91
2022-10-17T09:33:00.180Z,82.50
2022-10-17T09:34:00.176Z,82.10
2022-10-17T09:35:00.150Z,81.90
2022-10-17T09:36:00.139Z,81.39
2022-10-17T09:37:00.189Z,82.10
2022-10-17T09:38:00.139Z,81.15
2022-10-17T09:39:00.104Z,81.15
2022-10-17T09:40:00.102Z,79.30
2022-10-17T09:41:00.145Z,80.01
2022-10-17T09:42:00.082Z,79.30
2022-10-17T09:43:00.096Z,80.31
2022-10-17T09:44:00.035Z,80.98
2022-10-17T09:45:00.018Z,80.47
2022-10-17T09:46:00.077Z,80.27
2022-10-17T09:46:59.988Z,80.47
2022-10-17T09:48:01.702Z,78.97
2022-10-17T09:49:00.010Z,79.47
2022-10-17T09:50:00.114Z,80.63
2022-10-17T09:51:14.750Z,78.63
2022-10-17T09:52:00.918Z,77.32
2022-10-17T09:52:59.917Z,76.18
2022-10-17T09:53:59.898Z,75.38
2022-10-17T09:54:59.887Z,75.38
2022-10-17T09:56:00.076Z,75.68
2022-10-17T09:56:59.871Z,75.58
2022-10-17T09:57:59.851Z,76.08
2022-10-17T09:58:59.838Z,75.88
2022-10-17T09:59:59.927Z,75.58
2022-10-17T10:00:59.861Z,75.88
2022-10-17T10:01:59.878Z,75.34
2022-10-17T10:02:59.788Z,76.15
2022-10-17T10:03:59.776Z,75.84
2022-10-17T10:05:05.038Z,75.31
2022-10-17T10:06:00.755Z,75.81
2022-10-17T10:06:59.729Z,75.60
2022-10-17T10:07:59.767Z,75.31
2022-10-17T10:08:59.709Z,75.10
2022-10-17T10:09:59.704Z,74.90
2022-10-17T10:10:59.677Z,73.90
2022-10-17T10:11:59.666Z,74.51
2022-10-17T10:12:59.658Z,74.17
2022-10-17T10:13:59.668Z,74.01
2022-10-17T10:14:59.631Z,75.07
2022-10-17T10:15:59.618Z,73.86
2022-10-17T10:16:59.605Z,74.67
2022-10-17T10:17:59.594Z,75.37
2022-10-17T10:18:59.592Z,75.67
2022-10-17T10:19:59.606Z,74.47
2022-10-17T10:20:59.559Z,75.13
2022-10-17T10:21:59.537Z,75.43
2022-10-17T10:22:59.536Z,75.74
2022-10-17T10:23:59.508Z,75.43
2022-10-17T10:24:59.505Z,73.63
2022-10-17T10:25:59.558Z,73.83
2022-10-17T10:26:59.485Z,74.80
2022-10-17T10:28:01.389Z,73.39
2022-10-17T10:28:59.541Z,72.89
2022-10-17T10:29:59.437Z,72.69
2022-10-17T10:30:59.417Z,73.60
2022-10-17T10:31:59.474Z,72.89
2022-10-17T10:32:59.404Z,73.39
2022-10-17T10:33:59.376Z,73.36
2022-10-17T10:34:59.369Z,72.86
2022-10-17T10:35:59.365Z,72.46
2022-10-17T10:36:59.343Z,72.46
2022-10-17T10:37:59.377Z,71.76
2022-10-17T10:39:02.426Z,72.46
2022-10-17T10:40:00.311Z,72.66
2022-10-17T10:40:59.293Z,72.86
2022-10-17T10:41:59.282Z,72.26
2022-10-17T10:43:04.010Z,71.96
2022-10-17T10:44:00.284Z,71.96
2022-10-17T10:44:59.239Z,72.13
2022-10-17T10:45:59.235Z,72.23
2022-10-17T10:46:59.225Z,71.73
2022-10-17T10:47:59.195Z,71.23
2022-10-17T10:48:59.183Z,71.53
2022-10-17T10:49:59.234Z,69.69
2022-10-17T10:50:59.154Z,69.69
2022-10-17T10:51:59.144Z,70.19
2022-10-17T10:52:59.123Z,70.79
2022-10-17T10:53:59.116Z,69.49
2022-10-17T10:54:59.122Z,69.59
2022-10-17T10:55:59.135Z,69.09
2022-10-17T10:56:59.079Z,70.09
2022-10-17T10:57:59.062Z,69.73
2022-10-17T10:58:59.043Z,69.43
2022-10-17T10:59:59.033Z,69.93
2022-10-17T11:00:59.061Z,70.62
2022-10-17T11:01:59.166Z,70.19
2022-10-17T11:03:01.221Z,70.49
2022-10-17T11:03:59.005Z,70.79
2022-10-17T11:04:58.993Z,71.29
2022-10-17T11:05:58.982Z,71.39
2022-10-17T11:06:58.965Z,70.49
2022-10-17T11:07:58.991Z,69.99
2022-10-17T11:08:58.920Z,69.69
2022-10-17T11:09:58.922Z,70.19
2022-10-17T11:10:58.899Z,70.69
2022-10-17T11:11:58.880Z,70.59
2022-10-17T11:12:58.876Z,70.66
2022-10-17T11:13:58.924Z,70.06
2022-10-17T11:14:58.850Z,69.66
2022-10-17T11:15:58.832Z,68.86
2022-10-17T11:16:58.819Z,67.76
2022-10-17T11:17:58.806Z,68.26
2022-10-17T11:18:58.790Z,67.56
2022-10-17T11:19:58.822Z,66.66
2022-10-17T11:20:58.762Z,67.06
2022-10-17T11:21:58.807Z,67.13
2022-10-17T11:22:58.732Z,68.33
2022-10-17T11:23:58.732Z,67.83
2022-10-17T11:24:58.710Z,68.63
2022-10-17T11:25:58.868Z,68.29
2022-10-17T11:26:58.701Z,67.69
2022-10-17T11:28:02.307Z,68.13
2022-10-17T11:28:59.785Z,69.02
2022-10-17T11:29:58.642Z,70.32
2022-10-17T11:30:58.633Z,69.62
2022-10-17T11:31:58.652Z,69.62
2022-10-17T11:32:58.609Z,69.43
2022-10-17T11:33:58.594Z,70.12
2022-10-17T11:34:58.585Z,70.72
2022-10-17T11:35:59.240Z,70.23
2022-10-17T11:36:58.590Z,69.23
2022-10-17T11:37:58.543Z,69.23
2022-10-17T11:38:58.527Z,69.32
2022-10-17T11:39:58.520Z,71.72
2022-10-17T11:40:58.500Z,72.52
2022-10-17T11:42:00.875Z,70.23
2022-10-17T11:42:58.517Z,69.93
2022-10-17T11:43:58.459Z,70.53
2022-10-17T11:44:58.463Z,68.70
2022-10-17T11:45:58.443Z,67.80
2022-10-17T11:46:58.491Z,67.00
2022-10-17T11:47:58.465Z,67.19
2022-10-17T11:48:58.430Z,67.40
2022-10-17T11:49:58.559Z,68.10
2022-10-17T11:52:01.591Z,70.95
2022-10-17T11:52:58.738Z,69.16
2022-10-17T11:53:58.331Z,68.06
2022-10-17T11:54:58.329Z,68.26
2022-10-17T11:55:58.323Z,68.16
2022-10-17T11:56:58.303Z,66.66
2022-10-17T11:57:58.311Z,67.86
2022-10-17T11:58:58.269Z,65.97
2022-10-17T11:59:58.463Z,65.53
2022-10-17T12:00:58.241Z,66.73
2022-10-17T12:01:58.236Z,66.73
2022-10-17T12:02:58.247Z,68.53
2022-10-17T12:03:58.269Z,71.02
2022-10-17T12:04:58.190Z,70.53
2022-10-17T12:05:58.168Z,70.83
2022-10-17T12:06:58.167Z,70.23
2022-10-17T12:07:58.216Z,71.19
2022-10-17T12:08:58.139Z,68.99
2022-10-17T12:09:58.780Z,66.80
2022-10-17T12:10:58.248Z,66.00
2022-10-17T12:11:58.138Z,68.37
2022-10-17T12:12:58.119Z,67.66
2022-10-17T12:13:58.128Z,66.87
2022-10-17T12:14:58.060Z,65.34
2022-10-17T12:15:58.079Z,65.34
2022-10-17T12:16:58.036Z,64.25
2022-10-17T12:17:58.134Z,62.65
2022-10-17T12:18:58.012Z,63.32
2022-10-17T12:19:58.068Z,63.12
2022-10-17T12:20:58.018Z,61.83
2022-10-17T12:21:57.978Z,62.49
2022-10-17T12:22:57.958Z,62.19
2022-10-17T12:23:57.939Z,62.59
2022-10-17T12:24:57.928Z,61.67
2022-10-17T12:26:01.165Z,63.95
2022-10-17T12:26:58.914Z,61.47
2022-10-17T12:27:57.917Z,60.05
2022-10-17T12:28:57.928Z,60.74
2022-10-17T12:29:57.857Z,59.65
2022-10-17T12:30:57.851Z,58.43
2022-10-17T12:31:57.828Z,58.03
2022-10-17T12:33:05.608Z,57.83
2022-10-17T12:33:58.807Z,57.51
2022-10-17T12:34:57.807Z,56.32
2022-10-17T12:35:57.804Z,55.91
2022-10-17T12:36:57.770Z,56.41
2022-10-17T12:37:59.328Z,55.52
2022-10-17T12:38:57.804Z,55.62
2022-10-17T12:39:57.754Z,55.79
2022-10-17T12:40:57.716Z,55.40
2022-10-17T12:41:57.706Z,55.79
2022-10-17T12:42:57.698Z,56.09
2022-10-17T12:43:57.696Z,54.21
2022-10-17T12:44:57.727Z,54.47
2022-10-17T12:45:57.657Z,54.97
2022-10-17T12:46:57.661Z,54.97
2022-10-17T12:47:57.640Z,54.47
2022-10-17T12:48:57.617Z,54.77
2022-10-17T12:49:57.621Z,54.97
2022-10-17T12:51:12.187Z,54.87
2022-10-17T12:51:58.586Z,54.38
2022-10-17T12:52:57.569Z,53.98
2022-10-17T12:53:57.568Z,53.08
2022-10-17T12:55:10.840Z,52.19
2022-10-17T12:55:58.596Z,52.69
2022-10-17T12:56:57.516Z,52.49
2022-10-17T12:57:57.505Z,53.28
2022-10-17T12:58:57.498Z,53.19
2022-10-17T12:59:58.714Z,53.38
2022-10-17T13:01:22.471Z,52.79
2022-10-17T13:01:58.559Z,52.98
2022-10-17T13:02:57.448Z,52.42
2022-10-17T13:03:57.468Z,52.79
2022-10-17T13:04:57.405Z,52.49
2022-10-17T13:05:57.407Z,52.09
2022-10-17T13:06:57.397Z,51.89
2022-10-17T13:07:57.575Z,52.29
2022-10-17T13:09:02.435Z,52.39
2022-10-17T13:09:58.348Z,51.60
2022-10-17T13:10:57.333Z,51.30
2022-10-17T13:11:57.320Z,52.19
2022-10-17T13:12:57.305Z,51.47
2022-10-17T13:13:57.348Z,51.47
2022-10-17T13:14:57.278Z,51.77
2022-10-17T13:15:57.280Z,51.28
2022-10-17T13:16:57.255Z,51.67
2022-10-17T13:17:57.251Z,51.77
2022-10-17T13:18:57.232Z,51.87
2022-10-17T13:19:57.394Z,52.17
2022-10-17T13:20:57.196Z,51.67
2022-10-17T13:21:58.714Z,51.57
2022-10-17T13:22:57.167Z,51.94
2022-10-17T13:23:57.166Z,52.14
2022-10-17T13:24:57.155Z,51.84
2022-10-17T13:25:57.177Z,51.94
2022-10-17T13:26:57.126Z,52.44
2022-10-17T13:27:57.118Z,52.84
2022-10-17T13:28:57.261Z,52.54
2022-10-17T13:29:57.174Z,52.34
2022-10-17T13:30:57.697Z,52.44
2022-10-17T13:31:57.484Z,53.03
2022-10-17T13:32:57.137Z,52.84
2022-10-17T13:33:57.105Z,52.64
2022-10-17T13:34:57.026Z,52.24
2022-10-17T13:36:01.078Z,51.94
2022-10-17T13:36:56.994Z,52.14
2022-10-17T13:37:56.988Z,52.14
2022-10-17T13:38:56.965Z,52.04
2022-10-17T13:40:03.018Z,51.84
2022-10-17T13:41:06.131Z,51.35
2022-10-17T13:41:57.936Z,51.54
2022-10-17T13:42:56.947Z,51.94
2022-10-17T13:43:56.966Z,51.84
2022-10-17T13:44:56.885Z,51.45
2022-10-17T13:45:58.084Z,51.25
2022-10-17T13:46:56.907Z,50.95
2022-10-17T13:47:56.878Z,50.76
2022-10-17T13:48:56.864Z,49.96
2022-10-17T13:49:57.017Z,49.46
2022-10-17T13:51:00.370Z,49.07
2022-10-17T13:51:57.815Z,49.76
2022-10-17T13:52:56.792Z,49.66
2022-10-17T13:53:56.806Z,49.76
2022-10-17T13:54:56.784Z,49.76
2022-10-17T13:56:15.907Z,49.76
2022-10-17T13:56:57.827Z,49.66
2022-10-17T13:57:56.736Z,49.96
2022-10-17T13:58:56.714Z,50.06
2022-10-17T13:59:56.714Z,50.16
2022-10-17T14:00:56.762Z,49.76
2022-10-17T14:01:56.714Z,49.46
2022-10-17T14:02:56.665Z,49.76
2022-10-17T14:04:08.389Z,50.06
2022-10-17T14:05:16.269Z,50.16
2022-10-17T14:05:57.660Z,50.46
2022-10-17T14:06:56.604Z,50.16
2022-10-17T14:08:11.220Z,49.76
2022-10-17T14:08:57.594Z,49.76
2022-10-17T14:09:56.594Z,49.86
2022-10-17T14:10:56.615Z,49.96
2022-10-17T14:11:56.542Z,49.96
2022-10-17T14:12:56.524Z,50.46
2022-10-17T14:13:56.514Z,50.65
2022-10-17T14:15:10.038Z,50.26
2022-10-17T14:15:57.493Z,50.36
2022-10-17T14:16:56.495Z,50.46
2022-10-17T14:17:56.465Z,51.25
2022-10-17T14:18:56.471Z,50.65
2022-10-17T14:20:14.199Z,50.36
2022-10-17T14:21:37.232Z,49.76
2022-10-17T14:21:57.444Z,50.26
2022-10-17T14:23:57.434Z,50.36
2022-10-17T14:25:00.232Z,51.05
2022-10-17T14:25:57.366Z,50.46
2022-10-17T14:26:56.375Z,50.26
2022-10-17T14:27:56.336Z,49.99
2022-10-17T14:28:56.362Z,50.28
2022-10-17T14:29:56.403Z,50.48
2022-10-17T14:30:57.532Z,50.48
2022-10-17T14:31:56.283Z,50.58
2022-10-17T14:32:56.277Z,50.68
2022-10-17T14:33:56.333Z,50.98
2022-10-17T14:35:05.522Z,51.20
2022-10-17T14:35:57.303Z,52.39
2022-10-17T14:36:56.224Z,54.47
2022-10-17T14:37:56.215Z,55.66
2022-10-17T14:38:56.196Z,56.38
2022-10-17T14:39:56.185Z,56.68
2022-10-17T14:41:09.612Z,57.38
2022-10-17T14:42:00.752Z,57.78
2022-10-17T14:42:57.152Z,58.07
2022-10-17T14:43:56.167Z,58.27
2022-10-17T14:44:56.112Z,58.40
2022-10-17T14:45:56.166Z,58.40
2022-10-17T14:46:56.102Z,58.57
2022-10-17T14:47:56.232Z,58.60
2022-10-17T14:48:56.084Z,58.80
2022-10-17T14:49:56.053Z,59.00
2022-10-17T14:50:56.033Z,59.22
2022-10-17T14:51:57.029Z,59.32
2022-10-17T14:52:57.083Z,59.52
2022-10-17T14:53:56.004Z,59.52
2022-10-17T14:54:55.981Z,59.72
2022-10-17T14:55:55.979Z,59.32
2022-10-17T14:56:55.975Z,58.95
2022-10-17T14:57:55.950Z,59.75
2022-10-17T14:58:55.993Z,60.25
2022-10-17T14:59:56.065Z,60.25
2022-10-17T15:00:55.912Z,60.64
2022-10-17T15:01:55.909Z,60.14
2022-10-17T15:02:55.914Z,60.14
2022-10-17T15:03:55.872Z,60.05
2022-10-17T15:04:55.909Z,60.14
2022-10-17T15:05:55.849Z,60.14
2022-10-17T15:06:55.831Z,60.14
2022-10-17T15:07:55.813Z,60.38
2022-10-17T15:08:55.805Z,60.27
2022-10-17T15:09:55.801Z,60.47
2022-10-17T15:10:55.825Z,60.77
2022-10-17T15:11:55.764Z,60.38
2022-10-17T15:12:59.309Z,60.47
2022-10-17T15:13:56.768Z,61.27
2022-10-17T15:14:55.723Z,61.07
2022-10-17T15:15:55.721Z,62.86
2022-10-17T15:16:55.750Z,64.69
2022-10-17T15:17:55.701Z,64.18
2022-10-17T15:18:55.677Z,65.18
2022-10-17T15:19:55.661Z,63.89
2022-10-17T15:21:04.768Z,64.39
2022-10-17T15:21:56.641Z,63.02
2022-10-17T15:22:55.626Z,62.72
2022-10-17T15:23:55.623Z,63.02
2022-10-17T15:24:55.590Z,62.72
2022-10-17T15:25:55.590Z,63.12
2022-10-17T15:26:55.620Z,63.32
2022-10-17T15:27:55.560Z,62.92
2022-10-17T15:28:55.572Z,62.82
2022-10-17T15:29:55.530Z,64.12
2022-10-17T15:30:55.551Z,63.42
2022-10-17T15:31:55.517Z,63.52
2022-10-17T15:32:55.500Z,63.92
2022-10-17T15:33:55.483Z,64.64
2022-10-17T15:34:55.460Z,65.64
2022-10-17T15:35:55.543Z,65.54
2022-10-17T15:36:55.441Z,63.92
2022-10-17T15:37:55.434Z,64.91
2022-10-17T15:38:55.410Z,64.69
2022-10-17T15:39:55.431Z,65.38
2022-10-17T15:40:55.402Z,64.88
2022-10-17T15:41:55.571Z,64.06
2022-10-17T15:42:55.361Z,64.55
2022-10-17T15:43:55.399Z,63.23
2022-10-17T15:44:55.422Z,62.63
2022-10-17T15:45:55.330Z,63.23
2022-10-17T15:46:55.309Z,63.13
2022-10-17T15:47:55.375Z,61.74
2022-10-17T15:48:55.290Z,61.87
2022-10-17T15:49:55.340Z,62.07
2022-10-17T15:50:55.250Z,62.66
2022-10-17T15:51:55.495Z,62.40
2022-10-17T15:52:55.240Z,63.02
2022-10-17T15:53:55.260Z,63.72
2022-10-17T15:54:56.499Z,64.15
2022-10-17T15:55:55.220Z,65.67
2022-10-17T15:56:55.239Z,65.70
2022-10-17T15:57:55.180Z,67.20
2022-10-17T15:58:55.171Z,66.73
2022-10-17T15:59:55.139Z,67.93
2022-10-17T16:00:55.454Z,68.26
2022-10-17T16:01:55.128Z,69.76
2022-10-17T16:02:55.150Z,69.89
2022-10-17T16:03:55.090Z,69.23
2022-10-17T16:04:55.091Z,69.56
2022-10-17T16:05:55.069Z,70.86
2022-10-17T16:06:55.058Z,70.36
2022-10-17T16:07:55.038Z,71.49
2022-10-17T16:08:56.179Z,71.33
2022-10-17T16:09:55.015Z,73.13
2022-10-17T16:10:54.994Z,73.46
2022-10-17T16:11:55.100Z,74.96
2022-10-17T16:12:54.972Z,74.40
2022-10-17T16:13:54.965Z,74.70
2022-10-17T16:14:55.543Z,75.40
2022-10-17T16:15:54.970Z,75.74
2022-10-17T16:16:54.908Z,76.34
2022-10-17T16:17:54.908Z,75.93
2022-10-17T16:18:54.888Z,76.28
2022-10-17T16:19:54.878Z,76.07
2022-10-17T16:20:54.943Z,75.97
2022-10-17T16:21:54.871Z,75.97
2022-10-17T16:22:54.837Z,77.01
2022-10-17T16:23:54.828Z,77.41
2022-10-17T16:24:54.837Z,77.75
2022-10-17T16:25:54.798Z,77.95
2022-10-17T16:26:54.988Z,78.15
2022-10-17T16:27:54.774Z,78.25
2022-10-17T16:28:54.811Z,78.45
2022-10-17T16:29:54.760Z,78.89
2022-10-17T16:30:54.728Z,79.90
2022-10-17T16:31:54.745Z,79.29
2022-10-17T16:32:54.734Z,79.60
2022-10-17T16:33:54.697Z,79.60
2022-10-17T16:34:54.687Z,79.80
2022-10-17T16:35:54.673Z,80.19
2022-10-17T16:36:54.707Z,80.63
2022-10-17T16:37:54.650Z,81.54
2022-10-17T16:38:54.633Z,81.27
2022-10-17T16:39:54.629Z,82.28
2022-10-17T16:40:54.597Z,82.82
2022-10-17T16:41:57.694Z,82.92
2022-10-17T16:42:54.640Z,83.83
2022-10-17T16:43:54.566Z,84.27
2022-10-17T16:44:54.552Z,84.47
2022-10-17T16:45:54.551Z,84.51
2022-10-17T16:46:54.536Z,84.71
2022-10-17T16:47:54.526Z,84.91
2022-10-17T16:48:54.556Z,84.91
2022-10-17T16:49:54.495Z,84.81
2022-10-17T16:50:54.495Z,84.95
2022-10-17T16:51:54.469Z,85.16
2022-10-17T16:52:54.496Z,85.46
2022-10-17T16:53:54.454Z,85.70
2022-10-17T16:54:54.502Z,86.00
2022-10-17T16:55:54.406Z,86.41
2022-10-17T16:56:54.424Z,86.30
2022-10-17T16:57:54.388Z,86.44